VVGL weather

Gia Lam Air Base
Hanoi, Ha Tay Province, Vietnam

Public forecast

Using degrees Celsius for public forecast. Weather courtesy of forecast.io.

METAR (pilot weather report)

Closest report is Noi Bai International Airport, 11.7 nm (21.7 km) NNW. Retrieved 2019/04/25 11:30 UTC (26 minutes ago):

VVNB 251130Z 11010KT 9999 FEW024 BKN034 29/24 Q1005 NOSIG

TAF (pilot weather forecast)

Closest forecast is Noi Bai International Airport, 11.7 nm (21.7 km) NNW. Retrieved 2019/04/25 06:37 UTC (5 hours ago):

TAF VVNB 250500Z 2506/2606 11007KT 9999 SCT018 PROB30 TEMPO 2510/2514 4000 TSRA SCT010 FEW027CB BKN030